createdAt,value
2023-02-11T00:02:47.829Z,5.20
2023-02-11T00:08:49.831Z,5.20
2023-02-11T00:14:52.051Z,5.30
2023-02-11T00:20:53.748Z,5.30
2023-02-11T00:26:55.513Z,5.40
2023-02-11T00:32:57.251Z,5.40
2023-02-11T00:38:59.485Z,5.40
2023-02-11T00:45:02.036Z,5.30
2023-02-11T00:51:04.426Z,5.40
2023-02-11T00:57:06.142Z,5.50
2023-02-11T01:03:07.850Z,5.50
2023-02-11T01:09:09.617Z,5.60
2023-02-11T01:15:16.106Z,5.50
2023-02-11T01:21:18.264Z,5.60
2023-02-11T01:27:19.975Z,5.50
2023-02-11T01:33:22.796Z,5.40
2023-02-11T01:39:24.955Z,5.40
2023-02-11T01:45:44.949Z,5.40
2023-02-11T01:52:01.422Z,5.50
2023-02-11T01:58:05.419Z,5.50
2023-02-11T02:04:09.498Z,5.50
2023-02-11T02:10:17.041Z,5.50
2023-02-11T02:16:21.215Z,5.50
2023-02-11T02:22:50.462Z,5.50
2023-02-11T02:29:08.411Z,5.50
2023-02-11T02:35:16.778Z,5.40
2023-02-11T02:41:23.235Z,5.40
2023-02-11T02:47:24.934Z,5.40
2023-02-11T02:53:45.085Z,5.40
2023-02-11T03:00:14.553Z,5.40
2023-02-11T03:06:38.408Z,5.30
2023-02-11T03:12:43.833Z,5.30
2023-02-11T03:18:51.223Z,5.30
2023-02-11T03:24:55.610Z,5.20
2023-02-11T03:31:10.553Z,5.20
2023-02-11T03:37:27.960Z,5.10
2023-02-11T03:43:49.785Z,5.10
2023-02-11T03:49:53.222Z,5.10
2023-02-11T03:55:58.240Z,5.00
2023-02-11T04:01:59.964Z,5.00
2023-02-11T04:08:02.309Z,5.00
2023-02-11T04:14:04.405Z,5.00
2023-02-11T04:20:06.581Z,5.00
2023-02-11T04:26:08.288Z,5.00
2023-02-11T04:32:11.834Z,5.00
2023-02-11T04:38:14.132Z,5.00
2023-02-11T04:44:15.925Z,5.00
2023-02-11T04:50:17.750Z,5.00
2023-02-11T04:56:19.501Z,5.00
2023-02-11T05:02:21.241Z,5.00
2023-02-11T05:08:22.937Z,5.10
2023-02-11T05:14:24.721Z,5.10
2023-02-11T05:20:26.506Z,5.10
2023-02-11T05:26:28.312Z,5.20
2023-02-11T05:32:30.153Z,5.20
2023-02-11T05:38:31.988Z,5.30
2023-02-11T05:44:33.684Z,5.30
2023-02-11T05:50:35.488Z,5.40
2023-02-11T05:56:37.210Z,5.40
2023-02-11T06:02:39.077Z,5.40
2023-02-11T06:08:41.053Z,5.40
2023-02-11T06:14:42.789Z,5.40
2023-02-11T06:20:44.537Z,5.40
2023-02-11T06:26:46.269Z,5.40
2023-02-11T06:32:48.132Z,5.40
2023-02-11T06:38:50.257Z,5.40
2023-02-11T06:44:52.063Z,5.40
2023-02-11T06:50:53.832Z,5.50
2023-02-11T06:56:55.528Z,5.40
2023-02-11T07:02:57.451Z,5.40
2023-02-11T07:08:59.206Z,5.40
2023-02-11T07:15:01.084Z,5.40
2023-02-11T07:21:07.362Z,5.40
2023-02-11T07:27:09.106Z,5.40
2023-02-11T07:33:10.812Z,5.40
2023-02-11T07:39:12.834Z,5.40
2023-02-11T07:45:14.694Z,5.40
2023-02-11T07:51:19.363Z,5.40
2023-02-11T07:57:21.059Z,5.40
2023-02-11T08:03:22.944Z,5.40
2023-02-11T08:09:25.063Z,5.50
2023-02-11T08:15:26.787Z,5.50
2023-02-11T08:21:29.177Z,5.60
2023-02-11T08:27:31.117Z,5.50
2023-02-11T08:33:33.643Z,5.60
2023-02-11T08:39:35.323Z,5.60
2023-02-11T08:45:37.664Z,5.70
2023-02-11T08:51:39.727Z,5.70
2023-02-11T08:57:41.442Z,5.80
2023-02-11T09:03:43.249Z,5.90
2023-02-11T09:09:45.103Z,5.80
2023-02-11T09:15:46.927Z,5.80
2023-02-11T09:21:49.102Z,5.80
2023-02-11T09:27:52.304Z,5.80
2023-02-11T09:34:00.264Z,5.90
2023-02-11T09:40:02.100Z,5.90
2023-02-11T09:46:05.229Z,6.00
2023-02-11T09:52:25.648Z,6.00
2023-02-11T09:58:33.388Z,6.10
2023-02-11T10:04:48.891Z,6.10
2023-02-11T10:11:03.285Z,6.20
2023-02-11T10:17:35.776Z,6.20
2023-02-11T10:23:41.213Z,6.20
2023-02-11T10:29:49.353Z,6.30
2023-02-11T10:35:52.149Z,6.30
2023-02-11T10:42:01.878Z,6.30
2023-02-11T10:48:27.151Z,6.30
2023-02-11T10:54:28.946Z,6.20
2023-02-11T11:00:38.994Z,6.20
2023-02-11T11:06:40.713Z,6.20
2023-02-11T11:12:45.443Z,6.30
2023-02-11T11:18:48.478Z,6.30
2023-02-11T11:24:54.336Z,6.40
2023-02-11T11:30:57.411Z,6.50
2023-02-11T11:37:09.640Z,6.60
2023-02-11T11:43:14.286Z,6.70
2023-02-11T11:49:33.464Z,6.80
2023-02-11T11:56:00.549Z,7.00
2023-02-11T12:02:39.960Z,7.00
2023-02-11T12:08:41.619Z,7.10
2023-02-11T12:14:59.380Z,7.20
2023-02-11T12:21:26.109Z,7.20
2023-02-11T12:27:49.546Z,7.20
2023-02-11T12:34:19.313Z,7.20
2023-02-11T12:40:24.286Z,7.30
2023-02-11T12:46:39.123Z,7.20
2023-02-11T12:52:48.684Z,7.30
2023-02-11T12:58:54.825Z,7.20
2023-02-11T13:05:18.451Z,7.20
2023-02-11T13:11:37.910Z,7.20
2023-02-11T13:18:02.173Z,7.20
2023-02-11T13:24:28.609Z,7.30
2023-02-11T13:30:40.832Z,7.30
2023-02-11T13:36:56.620Z,7.30
2023-02-11T13:43:01.291Z,7.30
2023-02-11T13:49:02.960Z,7.30
2023-02-11T13:55:14.830Z,7.30
2023-02-11T14:02:20.676Z,7.30
2023-02-11T14:08:43.154Z,7.40
2023-02-11T14:15:17.853Z,7.40
2023-02-11T14:21:30.461Z,7.40
2023-02-11T14:27:55.291Z,7.40
2023-02-11T14:34:05.132Z,7.50
2023-02-11T14:40:07.020Z,7.40
2023-02-11T14:46:09.665Z,7.50
2023-02-11T14:52:33.217Z,7.50
2023-02-11T14:58:34.930Z,7.50
2023-02-11T15:04:37.842Z,7.50
2023-02-11T15:10:44.225Z,7.50
2023-02-11T15:16:47.376Z,7.50
2023-02-11T15:22:55.970Z,7.50
2023-02-11T15:28:57.795Z,7.60
2023-02-11T15:35:00.587Z,7.50
2023-02-11T15:41:04.513Z,7.60
2023-02-11T15:47:10.765Z,7.60
2023-02-11T15:53:42.252Z,7.60
2023-02-11T15:59:52.997Z,7.60
2023-02-11T16:05:59.905Z,7.60
2023-02-11T16:12:04.587Z,7.60
2023-02-11T16:18:36.726Z,7.60
2023-02-11T16:24:40.026Z,7.60
2023-02-11T16:30:43.202Z,7.60
2023-02-11T16:36:45.903Z,7.50
2023-02-11T16:42:47.595Z,7.50
2023-02-11T16:48:49.336Z,7.60
2023-02-11T16:54:51.262Z,7.60
2023-02-11T17:00:53.772Z,7.60
2023-02-11T17:06:58.256Z,7.60
2023-02-11T17:13:01.619Z,7.60
2023-02-11T17:19:03.600Z,7.60
2023-02-11T17:25:06.642Z,7.60
2023-02-11T17:31:09.530Z,7.60
2023-02-11T17:37:11.312Z,7.60
2023-02-11T17:43:13.011Z,7.60
2023-02-11T17:49:15.752Z,7.60
2023-02-11T17:55:17.454Z,7.60
2023-02-11T18:01:19.896Z,7.60
2023-02-11T18:07:21.643Z,7.60
2023-02-11T18:13:23.348Z,7.60
2023-02-11T18:19:25.539Z,7.60
2023-02-11T18:25:27.288Z,7.70
2023-02-11T18:31:29.697Z,7.80
2023-02-11T18:37:31.485Z,7.70
2023-02-11T18:43:34.422Z,7.80
2023-02-11T18:49:36.350Z,7.80
2023-02-11T18:55:40.026Z,7.80
2023-02-11T19:01:43.423Z,7.70
2023-02-11T19:07:45.333Z,7.60
2023-02-11T19:13:51.334Z,7.60
2023-02-11T19:19:53.511Z,7.70
2023-02-11T19:25:55.308Z,7.70
2023-02-11T19:31:57.200Z,7.60
2023-02-11T19:37:59.025Z,7.60
2023-02-11T19:44:02.104Z,7.50
2023-02-11T19:50:05.724Z,7.50
2023-02-11T19:56:08.081Z,7.50
2023-02-11T20:02:13.176Z,7.50
2023-02-11T20:08:17.115Z,7.60
2023-02-11T20:14:19.252Z,7.60
2023-02-11T20:20:21.103Z,7.60
2023-02-11T20:26:24.490Z,7.60
2023-02-11T20:32:26.229Z,7.70
2023-02-11T20:38:27.994Z,7.70
2023-02-11T20:44:29.789Z,7.60
2023-02-11T20:50:33.293Z,7.60
2023-02-11T20:56:37.097Z,7.60
2023-02-11T21:02:39.301Z,7.60
2023-02-11T21:08:41.104Z,7.60
2023-02-11T21:14:42.994Z,7.60
2023-02-11T21:20:44.804Z,7.70
2023-02-11T21:26:46.748Z,7.60
2023-02-11T21:32:48.606Z,7.70
2023-02-11T21:38:50.583Z,7.70
2023-02-11T21:44:52.367Z,7.70
2023-02-11T21:50:54.354Z,7.70
2023-02-11T21:56:56.205Z,7.70
2023-02-11T22:02:58.190Z,7.70
2023-02-11T22:09:07.821Z,7.70
2023-02-11T22:15:09.992Z,7.70
2023-02-11T22:21:15.168Z,7.70
2023-02-11T22:27:20.125Z,7.70
2023-02-11T22:33:24.012Z,7.70
2023-02-11T22:39:25.881Z,7.70
2023-02-11T22:45:27.696Z,7.60
2023-02-11T22:51:30.804Z,7.50
2023-02-11T22:57:32.949Z,7.50
2023-02-11T23:03:35.161Z,7.40
2023-02-11T23:09:37.328Z,7.40
2023-02-11T23:15:40.976Z,7.40
2023-02-11T23:21:42.892Z,7.40
2023-02-11T23:27:44.857Z,7.50
2023-02-11T23:33:47.421Z,7.60
2023-02-11T23:39:49.350Z,7.60
2023-02-11T23:45:52.343Z,7.70
2023-02-11T23:51:54.409Z,7.70
2023-02-11T23:57:56.407Z,7.70
